sensor_id;sensor_type;location;lat;lon;timestamp;P1;durP1;ratioP1;P2;durP2;ratioP2
64188;SDS011;50493;50.970;10.082;2023-10-31T00:00:37;5.38;;;3.03;;
64188;SDS011;50493;50.970;10.082;2023-10-31T00:03:03;4.90;;;3.03;;
64188;SDS011;50493;50.970;10.082;2023-10-31T00:05:28;4.95;;;3.50;;
64188;SDS011;50493;50.970;10.082;2023-10-31T00:07:54;5.07;;;3.25;;
64188;SDS011;50493;50.970;10.082;2023-10-31T00:10:19;4.47;;;2.88;;
64188;SDS011;50493;50.970;10.082;2023-10-31T00:12:46;4.93;;;2.92;;
64188;SDS011;50493;50.970;10.082;2023-10-31T00:15:11;4.50;;;3.00;;
64188;SDS011;50493;50.970;10.082;2023-10-31T00:17:37;4.32;;;2.70;;
64188;SDS011;50493;50.970;10.082;2023-10-31T00:20:03;4.75;;;2.85;;
64188;SDS011;50493;50.970;10.082;2023-10-31T00:22:30;5.45;;;2.92;;
64188;SDS011;50493;50.970;10.082;2023-10-31T00:24:55;6.03;;;2.92;;
64188;SDS011;50493;50.970;10.082;2023-10-31T00:27:21;4.82;;;3.00;;
64188;SDS011;50493;50.970;10.082;2023-10-31T00:29:47;5.63;;;3.35;;
64188;SDS011;50493;50.970;10.082;2023-10-31T00:32:13;4.70;;;3.00;;
64188;SDS011;50493;50.970;10.082;2023-10-31T00:34:38;6.50;;;3.55;;
64188;SDS011;50493;50.970;10.082;2023-10-31T00:37:04;5.45;;;3.08;;
64188;SDS011;50493;50.970;10.082;2023-10-31T00:39:29;5.55;;;2.90;;
64188;SDS011;50493;50.970;10.082;2023-10-31T00:41:55;4.40;;;2.75;;
64188;SDS011;50493;50.970;10.082;2023-10-31T00:44:20;4.75;;;3.17;;
64188;SDS011;50493;50.970;10.082;2023-10-31T00:46:47;4.50;;;2.60;;
64188;SDS011;50493;50.970;10.082;2023-10-31T00:49:12;4.57;;;2.95;;
64188;SDS011;50493;50.970;10.082;2023-10-31T00:51:38;4.95;;;3.20;;
64188;SDS011;50493;50.970;10.082;2023-10-31T00:54:03;4.82;;;2.88;;
64188;SDS011;50493;50.970;10.082;2023-10-31T00:56:29;5.30;;;3.50;;
64188;SDS011;50493;50.970;10.082;2023-10-31T00:58:54;5.13;;;3.15;;
64188;SDS011;50493;50.970;10.082;2023-10-31T01:01:20;4.68;;;2.88;;
64188;SDS011;50493;50.970;10.082;2023-10-31T01:03:46;6.28;;;3.55;;
64188;SDS011;50493;50.970;10.082;2023-10-31T01:06:12;6.30;;;3.70;;
64188;SDS011;50493;50.970;10.082;2023-10-31T01:08:37;6.60;;;3.67;;
64188;SDS011;50493;50.970;10.082;2023-10-31T01:11:03;4.75;;;3.00;;
64188;SDS011;50493;50.970;10.082;2023-10-31T01:13:28;6.32;;;3.85;;
64188;SDS011;50493;50.970;10.082;2023-10-31T01:15:53;4.90;;;2.90;;
64188;SDS011;50493;50.970;10.082;2023-10-31T01:18:19;6.25;;;3.63;;
64188;SDS011;50493;50.970;10.082;2023-10-31T01:20:45;4.95;;;3.38;;
64188;SDS011;50493;50.970;10.082;2023-10-31T01:23:11;6.85;;;3.65;;
64188;SDS011;50493;50.970;10.082;2023-10-31T01:25:36;6.65;;;3.50;;
64188;SDS011;50493;50.970;10.082;2023-10-31T01:28:02;4.22;;;2.72;;
64188;SDS011;50493;50.970;10.082;2023-10-31T01:30:27;6.38;;;3.88;;
64188;SDS011;50493;50.970;10.082;2023-10-31T01:32:53;5.88;;;3.30;;
64188;SDS011;50493;50.970;10.082;2023-10-31T01:35:18;4.00;;;2.47;;
64188;SDS011;50493;50.970;10.082;2023-10-31T01:37:45;4.85;;;2.90;;
64188;SDS011;50493;50.970;10.082;2023-10-31T01:40:12;5.90;;;3.08;;
64188;SDS011;50493;50.970;10.082;2023-10-31T01:42:37;4.57;;;2.60;;
64188;SDS011;50493;50.970;10.082;2023-10-31T01:45:03;4.03;;;2.58;;
64188;SDS011;50493;50.970;10.082;2023-10-31T01:47:29;5.35;;;2.90;;
64188;SDS011;50493;50.970;10.082;2023-10-31T01:49:54;3.92;;;2.50;;
64188;SDS011;50493;50.970;10.082;2023-10-31T01:52:20;4.80;;;3.00;;
64188;SDS011;50493;50.970;10.082;2023-10-31T01:54:47;3.10;;;2.10;;
64188;SDS011;50493;50.970;10.082;2023-10-31T01:57:13;3.92;;;2.20;;
64188;SDS011;50493;50.970;10.082;2023-10-31T01:59:39;4.30;;;2.20;;
64188;SDS011;50493;50.970;10.082;2023-10-31T02:02:05;4.10;;;2.30;;
64188;SDS011;50493;50.970;10.082;2023-10-31T02:04:31;2.90;;;2.00;;
64188;SDS011;50493;50.970;10.082;2023-10-31T02:06:56;3.47;;;2.20;;
64188;SDS011;50493;50.970;10.082;2023-10-31T02:09:22;3.50;;;1.95;;
64188;SDS011;50493;50.970;10.082;2023-10-31T02:11:51;4.90;;;1.67;;
64188;SDS011;50493;50.970;10.082;2023-10-31T02:14:16;2.38;;;1.48;;
64188;SDS011;50493;50.970;10.082;2023-10-31T02:16:42;3.85;;;1.90;;
64188;SDS011;50493;50.970;10.082;2023-10-31T02:19:07;3.55;;;1.80;;
64188;SDS011;50493;50.970;10.082;2023-10-31T02:21:33;2.53;;;1.67;;
64188;SDS011;50493;50.970;10.082;2023-10-31T02:24:00;2.65;;;1.77;;
64188;SDS011;50493;50.970;10.082;2023-10-31T02:26:30;2.38;;;1.42;;
64188;SDS011;50493;50.970;10.082;2023-10-31T02:28:55;3.72;;;1.90;;
64188;SDS011;50493;50.970;10.082;2023-10-31T02:31:21;2.15;;;1.58;;
64188;SDS011;50493;50.970;10.082;2023-10-31T02:33:46;3.92;;;1.70;;
64188;SDS011;50493;50.970;10.082;2023-10-31T02:36:12;2.65;;;1.80;;
64188;SDS011;50493;50.970;10.082;2023-10-31T02:38:37;3.33;;;1.67;;
64188;SDS011;50493;50.970;10.082;2023-10-31T02:41:04;3.33;;;1.40;;
64188;SDS011;50493;50.970;10.082;2023-10-31T02:43:29;3.13;;;1.52;;
64188;SDS011;50493;50.970;10.082;2023-10-31T02:45:55;2.83;;;1.50;;
64188;SDS011;50493;50.970;10.082;2023-10-31T02:48:20;3.47;;;1.70;;
64188;SDS011;50493;50.970;10.082;2023-10-31T02:50:46;3.58;;;1.40;;
64188;SDS011;50493;50.970;10.082;2023-10-31T02:53:11;2.17;;;1.50;;
64188;SDS011;50493;50.970;10.082;2023-10-31T02:55:37;2.80;;;1.23;;
64188;SDS011;50493;50.970;10.082;2023-10-31T02:58:03;5.80;;;1.35;;
64188;SDS011;50493;50.970;10.082;2023-10-31T03:00:29;1.58;;;1.10;;
64188;SDS011;50493;50.970;10.082;2023-10-31T03:02:54;1.77;;;1.10;;
64188;SDS011;50493;50.970;10.082;2023-10-31T03:05:19;1.73;;;1.20;;
64188;SDS011;50493;50.970;10.082;2023-10-31T03:07:45;2.83;;;1.30;;
64188;SDS011;50493;50.970;10.082;2023-10-31T03:10:10;1.83;;;1.10;;
64188;SDS011;50493;50.970;10.082;2023-10-31T03:12:36;2.47;;;1.40;;
64188;SDS011;50493;50.970;10.082;2023-10-31T03:15:03;2.28;;;1.40;;
64188;SDS011;50493;50.970;10.082;2023-10-31T03:17:29;1.40;;;0.98;;
64188;SDS011;50493;50.970;10.082;2023-10-31T03:19:54;1.30;;;1.00;;
64188;SDS011;50493;50.970;10.082;2023-10-31T03:22:20;1.85;;;1.30;;
64188;SDS011;50493;50.970;10.082;2023-10-31T03:24:45;1.90;;;1.17;;
64188;SDS011;50493;50.970;10.082;2023-10-31T03:27:11;3.20;;;1.17;;
64188;SDS011;50493;50.970;10.082;2023-10-31T03:29:36;3.08;;;1.30;;
64188;SDS011;50493;50.970;10.082;2023-10-31T03:32:03;2.20;;;1.40;;
64188;SDS011;50493;50.970;10.082;2023-10-31T03:34:30;2.35;;;1.30;;
64188;SDS011;50493;50.970;10.082;2023-10-31T03:36:55;2.22;;;1.30;;
64188;SDS011;50493;50.970;10.082;2023-10-31T03:39:20;1.83;;;1.20;;
64188;SDS011;50493;50.970;10.082;2023-10-31T03:41:46;1.98;;;1.13;;
64188;SDS011;50493;50.970;10.082;2023-10-31T03:44:11;1.88;;;1.10;;
64188;SDS011;50493;50.970;10.082;2023-10-31T03:46:37;1.98;;;1.30;;
64188;SDS011;50493;50.970;10.082;2023-10-31T03:49:04;2.42;;;1.33;;
64188;SDS011;50493;50.970;10.082;2023-10-31T03:51:32;1.88;;;1.20;;
64188;SDS011;50493;50.970;10.082;2023-10-31T03:53:58;3.58;;;0.90;;
64188;SDS011;50493;50.970;10.082;2023-10-31T03:56:23;1.65;;;1.27;;
64188;SDS011;50493;50.970;10.082;2023-10-31T03:58:48;1.65;;;1.00;;
64188;SDS011;50493;50.970;10.082;2023-10-31T04:01:14;2.42;;;1.45;;
64188;SDS011;50493;50.970;10.082;2023-10-31T04:03:39;3.30;;;1.00;;
64188;SDS011;50493;50.970;10.082;2023-10-31T04:06:06;1.83;;;1.00;;
64188;SDS011;50493;50.970;10.082;2023-10-31T04:08:31;1.27;;;0.93;;
64188;SDS011;50493;50.970;10.082;2023-10-31T04:10:57;1.58;;;0.95;;
64188;SDS011;50493;50.970;10.082;2023-10-31T04:13:22;1.40;;;1.00;;
64188;SDS011;50493;50.970;10.082;2023-10-31T04:15:48;1.48;;;1.02;;
64188;SDS011;50493;50.970;10.082;2023-10-31T04:18:13;2.55;;;0.95;;
64188;SDS011;50493;50.970;10.082;2023-10-31T04:20:39;1.50;;;1.00;;
64188;SDS011;50493;50.970;10.082;2023-10-31T04:23:06;1.27;;;0.88;;
64188;SDS011;50493;50.970;10.082;2023-10-31T04:25:33;1.17;;;0.95;;
64188;SDS011;50493;50.970;10.082;2023-10-31T04:27:58;1.20;;;0.90;;
64188;SDS011;50493;50.970;10.082;2023-10-31T04:30:24;2.00;;;1.10;;
64188;SDS011;50493;50.970;10.082;2023-10-31T04:32:49;2.60;;;1.17;;
64188;SDS011;50493;50.970;10.082;2023-10-31T04:35:15;1.17;;;0.90;;
64188;SDS011;50493;50.970;10.082;2023-10-31T04:37:40;1.42;;;0.93;;
64188;SDS011;50493;50.970;10.082;2023-10-31T04:40:08;2.88;;;1.10;;
64188;SDS011;50493;50.970;10.082;2023-10-31T04:42:34;1.85;;;0.93;;
64188;SDS011;50493;50.970;10.082;2023-10-31T04:45:00;1.80;;;0.90;;
64188;SDS011;50493;50.970;10.082;2023-10-31T04:47:25;1.30;;;0.80;;
64188;SDS011;50493;50.970;10.082;2023-10-31T04:49:50;1.85;;;1.00;;
64188;SDS011;50493;50.970;10.082;2023-10-31T04:52:16;1.35;;;0.90;;
64188;SDS011;50493;50.970;10.082;2023-10-31T04:54:42;1.13;;;0.90;;
64188;SDS011;50493;50.970;10.082;2023-10-31T04:57:09;2.03;;;0.93;;
64188;SDS011;50493;50.970;10.082;2023-10-31T04:59:34;2.95;;;1.02;;
64188;SDS011;50493;50.970;10.082;2023-10-31T05:01:59;1.52;;;0.70;;
64188;SDS011;50493;50.970;10.082;2023-10-31T05:04:25;1.35;;;0.70;;
64188;SDS011;50493;50.970;10.082;2023-10-31T05:06:50;2.03;;;0.80;;
64188;SDS011;50493;50.970;10.082;2023-10-31T05:09:16;1.33;;;0.90;;
64188;SDS011;50493;50.970;10.082;2023-10-31T05:11:42;1.10;;;0.70;;
64188;SDS011;50493;50.970;10.082;2023-10-31T05:14:09;1.20;;;0.88;;
64188;SDS011;50493;50.970;10.082;2023-10-31T05:16:39;2.20;;;0.80;;
64188;SDS011;50493;50.970;10.082;2023-10-31T05:19:05;1.38;;;0.82;;
64188;SDS011;50493;50.970;10.082;2023-10-31T05:21:31;1.42;;;0.82;;
64188;SDS011;50493;50.970;10.082;2023-10-31T05:23:56;2.60;;;0.90;;
64188;SDS011;50493;50.970;10.082;2023-10-31T05:26:21;1.15;;;0.80;;
64188;SDS011;50493;50.970;10.082;2023-10-31T05:28:47;1.40;;;0.90;;
64188;SDS011;50493;50.970;10.082;2023-10-31T05:31:16;1.23;;;0.90;;
64188;SDS011;50493;50.970;10.082;2023-10-31T05:33:42;1.35;;;0.75;;
64188;SDS011;50493;50.970;10.082;2023-10-31T05:36:17;2.30;;;0.88;;
64188;SDS011;50493;50.970;10.082;2023-10-31T05:38:42;1.75;;;0.80;;
64188;SDS011;50493;50.970;10.082;2023-10-31T05:41:08;1.58;;;0.80;;
64188;SDS011;50493;50.970;10.082;2023-10-31T05:43:34;2.08;;;0.93;;
64188;SDS011;50493;50.970;10.082;2023-10-31T05:45:59;1.42;;;0.55;;
64188;SDS011;50493;50.970;10.082;2023-10-31T05:48:26;1.23;;;0.80;;
64188;SDS011;50493;50.970;10.082;2023-10-31T05:50:51;3.47;;;0.80;;
64188;SDS011;50493;50.970;10.082;2023-10-31T05:53:16;2.38;;;0.80;;
64188;SDS011;50493;50.970;10.082;2023-10-31T05:55:42;1.27;;;0.77;;
64188;SDS011;50493;50.970;10.082;2023-10-31T05:58:07;2.10;;;0.82;;
64188;SDS011;50493;50.970;10.082;2023-10-31T06:00:33;2.08;;;0.88;;
64188;SDS011;50493;50.970;10.082;2023-10-31T06:02:58;1.25;;;0.90;;
64188;SDS011;50493;50.970;10.082;2023-10-31T06:05:25;1.75;;;0.80;;
64188;SDS011;50493;50.970;10.082;2023-10-31T06:07:50;1.35;;;0.80;;
64188;SDS011;50493;50.970;10.082;2023-10-31T06:10:16;1.55;;;0.80;;
64188;SDS011;50493;50.970;10.082;2023-10-31T06:12:42;1.77;;;0.90;;
64188;SDS011;50493;50.970;10.082;2023-10-31T06:15:07;0.98;;;0.75;;
64188;SDS011;50493;50.970;10.082;2023-10-31T06:17:33;3.10;;;0.90;;
64188;SDS011;50493;50.970;10.082;2023-10-31T06:19:59;1.98;;;0.90;;
64188;SDS011;50493;50.970;10.082;2023-10-31T06:22:26;2.78;;;0.70;;
64188;SDS011;50493;50.970;10.082;2023-10-31T06:24:51;1.42;;;0.70;;
64188;SDS011;50493;50.970;10.082;2023-10-31T06:27:17;1.10;;;0.75;;
64188;SDS011;50493;50.970;10.082;2023-10-31T06:29:42;1.33;;;0.80;;
64188;SDS011;50493;50.970;10.082;2023-10-31T06:32:07;1.10;;;0.75;;
64188;SDS011;50493;50.970;10.082;2023-10-31T06:34:33;1.45;;;0.77;;
64188;SDS011;50493;50.970;10.082;2023-10-31T06:36:58;1.40;;;0.70;;
64188;SDS011;50493;50.970;10.082;2023-10-31T06:39:25;2.42;;;0.70;;
64188;SDS011;50493;50.970;10.082;2023-10-31T06:41:53;1.55;;;0.80;;
64188;SDS011;50493;50.970;10.082;2023-10-31T06:44:19;1.90;;;0.90;;
64188;SDS011;50493;50.970;10.082;2023-10-31T06:46:44;1.63;;;0.80;;
64188;SDS011;50493;50.970;10.082;2023-10-31T06:49:10;1.77;;;0.80;;
64188;SDS011;50493;50.970;10.082;2023-10-31T06:51:35;1.60;;;0.70;;
64188;SDS011;50493;50.970;10.082;2023-10-31T06:54:01;3.95;;;0.80;;
64188;SDS011;50493;50.970;10.082;2023-10-31T06:56:27;1.60;;;0.60;;
64188;SDS011;50493;50.970;10.082;2023-10-31T06:58:53;2.95;;;0.80;;
64188;SDS011;50493;50.970;10.082;2023-10-31T07:01:19;1.10;;;0.68;;
64188;SDS011;50493;50.970;10.082;2023-10-31T07:03:44;1.13;;;0.70;;
64188;SDS011;50493;50.970;10.082;2023-10-31T07:06:10;1.15;;;0.70;;
64188;SDS011;50493;50.970;10.082;2023-10-31T07:08:35;0.73;;;0.60;;
64188;SDS011;50493;50.970;10.082;2023-10-31T07:11:00;1.38;;;0.70;;
64188;SDS011;50493;50.970;10.082;2023-10-31T07:13:27;1.75;;;0.60;;
64188;SDS011;50493;50.970;10.082;2023-10-31T07:15:52;1.55;;;0.80;;
64188;SDS011;50493;50.970;10.082;2023-10-31T07:18:18;1.27;;;0.75;;
64188;SDS011;50493;50.970;10.082;2023-10-31T07:20:43;0.85;;;0.70;;
64188;SDS011;50493;50.970;10.082;2023-10-31T07:23:09;1.95;;;0.60;;
64188;SDS011;50493;50.970;10.082;2023-10-31T07:25:34;2.67;;;0.70;;
64188;SDS011;50493;50.970;10.082;2023-10-31T07:27:59;1.80;;;0.73;;
64188;SDS011;50493;50.970;10.082;2023-10-31T07:30:26;2.13;;;0.80;;
64188;SDS011;50493;50.970;10.082;2023-10-31T07:32:52;1.23;;;0.80;;
64188;SDS011;50493;50.970;10.082;2023-10-31T07:35:18;2.00;;;0.80;;
64188;SDS011;50493;50.970;10.082;2023-10-31T07:37:44;0.45;;;0.40;;
64188;SDS011;50493;50.970;10.082;2023-10-31T07:40:10;1.48;;;0.70;;
64188;SDS011;50493;50.970;10.082;2023-10-31T07:42:36;0.90;;;0.60;;
64188;SDS011;50493;50.970;10.082;2023-10-31T07:45:02;0.88;;;0.70;;
64188;SDS011;50493;50.970;10.082;2023-10-31T07:47:29;0.88;;;0.60;;
64188;SDS011;50493;50.970;10.082;2023-10-31T07:49:55;1.65;;;0.90;;
64188;SDS011;50493;50.970;10.082;2023-10-31T07:52:20;0.73;;;0.50;;
64188;SDS011;50493;50.970;10.082;2023-10-31T07:54:46;1.27;;;0.80;;
64188;SDS011;50493;50.970;10.082;2023-10-31T07:57:11;1.50;;;0.75;;
64188;SDS011;50493;50.970;10.082;2023-10-31T07:59:36;1.20;;;0.70;;
64188;SDS011;50493;50.970;10.082;2023-10-31T08:02:02;1.77;;;0.80;;
64188;SDS011;50493;50.970;10.082;2023-10-31T08:04:29;1.45;;;0.80;;
64188;SDS011;50493;50.970;10.082;2023-10-31T08:06:57;3.17;;;1.55;;
64188;SDS011;50493;50.970;10.082;2023-10-31T08:09:22;1.65;;;0.90;;
64188;SDS011;50493;50.970;10.082;2023-10-31T08:11:48;2.20;;;0.88;;
64188;SDS011;50493;50.970;10.082;2023-10-31T08:14:13;0.88;;;0.70;;
64188;SDS011;50493;50.970;10.082;2023-10-31T08:16:40;3.08;;;1.17;;
64188;SDS011;50493;50.970;10.082;2023-10-31T08:19:06;1.92;;;0.73;;
64188;SDS011;50493;50.970;10.082;2023-10-31T08:21:32;1.38;;;0.90;;
64188;SDS011;50493;50.970;10.082;2023-10-31T08:24:00;1.30;;;0.70;;
64188;SDS011;50493;50.970;10.082;2023-10-31T08:26:25;3.15;;;0.80;;
64188;SDS011;50493;50.970;10.082;2023-10-31T08:28:51;1.60;;;0.80;;
64188;SDS011;50493;50.970;10.082;2023-10-31T08:31:16;1.42;;;0.85;;
64188;SDS011;50493;50.970;10.082;2023-10-31T08:33:42;1.42;;;0.82;;
64188;SDS011;50493;50.970;10.082;2023-10-31T08:36:07;0.70;;;0.70;;
64188;SDS011;50493;50.970;10.082;2023-10-31T08:38:35;1.98;;;0.82;;
64188;SDS011;50493;50.970;10.082;2023-10-31T08:41:00;1.35;;;0.90;;
64188;SDS011;50493;50.970;10.082;2023-10-31T08:43:26;1.45;;;0.70;;
64188;SDS011;50493;50.970;10.082;2023-10-31T08:45:51;0.77;;;0.50;;
64188;SDS011;50493;50.970;10.082;2023-10-31T08:48:17;1.98;;;0.80;;
64188;SDS011;50493;50.970;10.082;2023-10-31T08:50:42;0.93;;;0.75;;
64188;SDS011;50493;50.970;10.082;2023-10-31T08:53:08;2.30;;;0.90;;
64188;SDS011;50493;50.970;10.082;2023-10-31T08:55:35;1.38;;;0.77;;
64188;SDS011;50493;50.970;10.082;2023-10-31T08:58:00;1.80;;;0.90;;
64188;SDS011;50493;50.970;10.082;2023-10-31T09:00:25;1.38;;;0.80;;
64188;SDS011;50493;50.970;10.082;2023-10-31T09:02:53;1.50;;;0.82;;
64188;SDS011;50493;50.970;10.082;2023-10-31T09:05:18;1.27;;;0.75;;
64188;SDS011;50493;50.970;10.082;2023-10-31T09:07:44;1.83;;;0.80;;
64188;SDS011;50493;50.970;10.082;2023-10-31T09:10:11;1.02;;;0.85;;
64188;SDS011;50493;50.970;10.082;2023-10-31T09:12:38;2.33;;;1.38;;
64188;SDS011;50493;50.970;10.082;2023-10-31T09:15:04;2.20;;;0.98;;
64188;SDS011;50493;50.970;10.082;2023-10-31T09:17:30;1.75;;;0.70;;
64188;SDS011;50493;50.970;10.082;2023-10-31T09:19:55;1.88;;;1.10;;
64188;SDS011;50493;50.970;10.082;2023-10-31T09:22:21;1.83;;;1.00;;
64188;SDS011;50493;50.970;10.082;2023-10-31T09:24:46;1.58;;;0.70;;
64188;SDS011;50493;50.970;10.082;2023-10-31T09:27:12;1.20;;;0.90;;
64188;SDS011;50493;50.970;10.082;2023-10-31T09:29:38;2.05;;;1.00;;
64188;SDS011;50493;50.970;10.082;2023-10-31T09:32:04;4.13;;;0.80;;
64188;SDS011;50493;50.970;10.082;2023-10-31T09:34:31;1.50;;;0.82;;
64188;SDS011;50493;50.970;10.082;2023-10-31T09:36:57;1.65;;;0.80;;
64188;SDS011;50493;50.970;10.082;2023-10-31T09:39:23;2.40;;;1.33;;
64188;SDS011;50493;50.970;10.082;2023-10-31T09:41:48;4.53;;;2.08;;
64188;SDS011;50493;50.970;10.082;2023-10-31T09:44:14;2.78;;;1.05;;
64188;SDS011;50493;50.970;10.082;2023-10-31T09:46:41;2.42;;;1.20;;
64188;SDS011;50493;50.970;10.082;2023-10-31T09:49:07;2.30;;;1.20;;
64188;SDS011;50493;50.970;10.082;2023-10-31T09:51:33;2.92;;;1.10;;
64188;SDS011;50493;50.970;10.082;2023-10-31T09:53:59;3.20;;;1.30;;
64188;SDS011;50493;50.970;10.082;2023-10-31T09:56:26;2.17;;;1.10;;
64188;SDS011;50493;50.970;10.082;2023-10-31T09:58:59;1.77;;;1.00;;
64188;SDS011;50493;50.970;10.082;2023-10-31T10:01:25;3.97;;;1.88;;
64188;SDS011;50493;50.970;10.082;2023-10-31T10:03:52;3.80;;;1.60;;
64188;SDS011;50493;50.970;10.082;2023-10-31T10:06:18;4.45;;;1.92;;
64188;SDS011;50493;50.970;10.082;2023-10-31T10:08:46;2.95;;;1.25;;
64188;SDS011;50493;50.970;10.082;2023-10-31T10:11:11;2.13;;;1.20;;
64188;SDS011;50493;50.970;10.082;2023-10-31T10:13:37;2.95;;;1.25;;
64188;SDS011;50493;50.970;10.082;2023-10-31T10:16:02;1.92;;;1.13;;
64188;SDS011;50493;50.970;10.082;2023-10-31T10:18:29;2.88;;;1.20;;
64188;SDS011;50493;50.970;10.082;2023-10-31T10:20:58;2.20;;;1.25;;
64188;SDS011;50493;50.970;10.082;2023-10-31T10:23:24;2.60;;;1.27;;
64188;SDS011;50493;50.970;10.082;2023-10-31T10:25:51;2.22;;;1.15;;
64188;SDS011;50493;50.970;10.082;2023-10-31T10:28:17;2.13;;;1.20;;
64188;SDS011;50493;50.970;10.082;2023-10-31T10:30:44;3.33;;;1.30;;
64188;SDS011;50493;50.970;10.082;2023-10-31T10:33:10;2.72;;;1.23;;
64188;SDS011;50493;50.970;10.082;2023-10-31T10:35:35;2.03;;;1.02;;
64188;SDS011;50493;50.970;10.082;2023-10-31T10:38:02;2.08;;;1.10;;
64188;SDS011;50493;50.970;10.082;2023-10-31T10:40:34;1.42;;;1.10;;
64188;SDS011;50493;50.970;10.082;2023-10-31T10:42:59;2.70;;;1.40;;
64188;SDS011;50493;50.970;10.082;2023-10-31T10:45:33;2.83;;;1.17;;
64188;SDS011;50493;50.970;10.082;2023-10-31T10:48:00;2.17;;;1.40;;
64188;SDS011;50493;50.970;10.082;2023-10-31T10:50:35;2.22;;;1.40;;
64188;SDS011;50493;50.970;10.082;2023-10-31T10:53:07;2.95;;;1.63;;
64188;SDS011;50493;50.970;10.082;2023-10-31T10:55:39;2.88;;;1.55;;
64188;SDS011;50493;50.970;10.082;2023-10-31T10:58:12;3.05;;;1.40;;
64188;SDS011;50493;50.970;10.082;2023-10-31T11:00:44;3.85;;;1.67;;
64188;SDS011;50493;50.970;10.082;2023-10-31T11:03:11;2.70;;;1.27;;
64188;SDS011;50493;50.970;10.082;2023-10-31T11:05:38;2.97;;;1.40;;
64188;SDS011;50493;50.970;10.082;2023-10-31T11:08:06;2.10;;;1.42;;
64188;SDS011;50493;50.970;10.082;2023-10-31T11:10:32;1.83;;;1.13;;
64188;SDS011;50493;50.970;10.082;2023-10-31T11:12:59;2.33;;;1.33;;
64188;SDS011;50493;50.970;10.082;2023-10-31T11:15:24;2.53;;;1.38;;
64188;SDS011;50493;50.970;10.082;2023-10-31T11:17:52;2.70;;;1.40;;
64188;SDS011;50493;50.970;10.082;2023-10-31T11:20:19;3.60;;;1.30;;
64188;SDS011;50493;50.970;10.082;2023-10-31T11:22:46;2.05;;;1.40;;
64188;SDS011;50493;50.970;10.082;2023-10-31T11:25:15;1.80;;;1.35;;
64188;SDS011;50493;50.970;10.082;2023-10-31T11:27:49;1.80;;;1.20;;
64188;SDS011;50493;50.970;10.082;2023-10-31T11:30:22;1.40;;;1.10;;
64188;SDS011;50493;50.970;10.082;2023-10-31T11:32:52;2.28;;;1.33;;
64188;SDS011;50493;50.970;10.082;2023-10-31T11:35:19;1.80;;;1.30;;
64188;SDS011;50493;50.970;10.082;2023-10-31T11:37:45;2.40;;;1.30;;
64188;SDS011;50493;50.970;10.082;2023-10-31T11:40:20;5.95;;;1.90;;
64188;SDS011;50493;50.970;10.082;2023-10-31T11:42:47;4.32;;;1.80;;
64188;SDS011;50493;50.970;10.082;2023-10-31T11:45:24;3.72;;;1.77;;
64188;SDS011;50493;50.970;10.082;2023-10-31T11:47:52;2.70;;;1.77;;
64188;SDS011;50493;50.970;10.082;2023-10-31T11:50:17;2.70;;;1.60;;
64188;SDS011;50493;50.970;10.082;2023-10-31T11:52:43;3.35;;;1.60;;
64188;SDS011;50493;50.970;10.082;2023-10-31T11:55:08;3.42;;;1.80;;
64188;SDS011;50493;50.970;10.082;2023-10-31T11:57:36;4.63;;;1.90;;
64188;SDS011;50493;50.970;10.082;2023-10-31T12:00:03;4.30;;;1.88;;
64188;SDS011;50493;50.970;10.082;2023-10-31T12:02:29;8.65;;;2.15;;
64188;SDS011;50493;50.970;10.082;2023-10-31T12:05:06;2.53;;;1.45;;
64188;SDS011;50493;50.970;10.082;2023-10-31T12:07:40;4.13;;;1.90;;
64188;SDS011;50493;50.970;10.082;2023-10-31T12:10:07;3.70;;;1.70;;
64188;SDS011;50493;50.970;10.082;2023-10-31T12:12:33;5.05;;;1.80;;
64188;SDS011;50493;50.970;10.082;2023-10-31T12:15:05;4.13;;;1.70;;
64188;SDS011;50493;50.970;10.082;2023-10-31T12:17:31;3.13;;;1.80;;
64188;SDS011;50493;50.970;10.082;2023-10-31T12:19:57;4.38;;;1.48;;
64188;SDS011;50493;50.970;10.082;2023-10-31T12:22:23;3.92;;;1.67;;
64188;SDS011;50493;50.970;10.082;2023-10-31T12:24:49;4.13;;;1.40;;
64188;SDS011;50493;50.970;10.082;2023-10-31T12:27:14;2.53;;;1.30;;
64188;SDS011;50493;50.970;10.082;2023-10-31T12:29:39;3.15;;;1.73;;
64188;SDS011;50493;50.970;10.082;2023-10-31T12:32:11;3.03;;;1.70;;
64188;SDS011;50493;50.970;10.082;2023-10-31T12:34:42;4.22;;;1.85;;
64188;SDS011;50493;50.970;10.082;2023-10-31T12:37:09;3.90;;;1.33;;
64188;SDS011;50493;50.970;10.082;2023-10-31T12:39:34;3.03;;;1.30;;
64188;SDS011;50493;50.970;10.082;2023-10-31T12:42:00;2.63;;;1.70;;
64188;SDS011;50493;50.970;10.082;2023-10-31T12:44:27;3.30;;;1.60;;
64188;SDS011;50493;50.970;10.082;2023-10-31T12:46:53;4.03;;;1.77;;
64188;SDS011;50493;50.970;10.082;2023-10-31T12:49:21;4.72;;;2.20;;
64188;SDS011;50493;50.970;10.082;2023-10-31T12:51:55;3.45;;;1.90;;
64188;SDS011;50493;50.970;10.082;2023-10-31T12:54:27;3.33;;;1.70;;
64188;SDS011;50493;50.970;10.082;2023-10-31T12:56:53;4.53;;;1.90;;
64188;SDS011;50493;50.970;10.082;2023-10-31T12:59:18;3.83;;;2.10;;
64188;SDS011;50493;50.970;10.082;2023-10-31T13:01:44;4.55;;;1.70;;
64188;SDS011;50493;50.970;10.082;2023-10-31T13:04:09;4.20;;;2.03;;
64188;SDS011;50493;50.970;10.082;2023-10-31T13:06:36;3.38;;;1.73;;
64188;SDS011;50493;50.970;10.082;2023-10-31T13:09:02;5.13;;;2.00;;
64188;SDS011;50493;50.970;10.082;2023-10-31T13:11:30;3.80;;;1.85;;
64188;SDS011;50493;50.970;10.082;2023-10-31T13:13:56;4.38;;;2.00;;
64188;SDS011;50493;50.970;10.082;2023-10-31T13:16:21;3.05;;;1.80;;
64188;SDS011;50493;50.970;10.082;2023-10-31T13:18:47;4.03;;;2.00;;
64188;SDS011;50493;50.970;10.082;2023-10-31T13:21:12;5.55;;;2.30;;
64188;SDS011;50493;50.970;10.082;2023-10-31T13:23:41;4.28;;;1.98;;
64188;SDS011;50493;50.970;10.082;2023-10-31T13:26:10;3.22;;;1.80;;
64188;SDS011;50493;50.970;10.082;2023-10-31T13:28:35;3.72;;;2.00;;
64188;SDS011;50493;50.970;10.082;2023-10-31T13:31:01;3.80;;;2.30;;
64188;SDS011;50493;50.970;10.082;2023-10-31T13:33:27;3.95;;;2.08;;
64188;SDS011;50493;50.970;10.082;2023-10-31T13:35:53;2.97;;;1.95;;
64188;SDS011;50493;50.970;10.082;2023-10-31T13:38:18;3.97;;;2.08;;
64188;SDS011;50493;50.970;10.082;2023-10-31T13:40:45;2.85;;;1.90;;
64188;SDS011;50493;50.970;10.082;2023-10-31T13:43:10;4.25;;;2.00;;
64188;SDS011;50493;50.970;10.082;2023-10-31T13:45:36;3.38;;;1.90;;
64188;SDS011;50493;50.970;10.082;2023-10-31T13:48:02;3.33;;;2.30;;
64188;SDS011;50493;50.970;10.082;2023-10-31T13:50:28;3.97;;;2.10;;
64188;SDS011;50493;50.970;10.082;2023-10-31T13:52:53;3.50;;;1.67;;
64188;SDS011;50493;50.970;10.082;2023-10-31T13:55:19;5.05;;;2.15;;
64188;SDS011;50493;50.970;10.082;2023-10-31T13:57:46;3.70;;;2.03;;
64188;SDS011;50493;50.970;10.082;2023-10-31T14:00:12;4.70;;;1.95;;
64188;SDS011;50493;50.970;10.082;2023-10-31T14:02:38;4.00;;;1.90;;
64188;SDS011;50493;50.970;10.082;2023-10-31T14:05:04;4.18;;;2.20;;
64188;SDS011;50493;50.970;10.082;2023-10-31T14:07:30;2.70;;;1.90;;
64188;SDS011;50493;50.970;10.082;2023-10-31T14:09:56;4.60;;;2.03;;
64188;SDS011;50493;50.970;10.082;2023-10-31T14:12:22;4.13;;;2.30;;
64188;SDS011;50493;50.970;10.082;2023-10-31T14:14:48;3.55;;;2.08;;
64188;SDS011;50493;50.970;10.082;2023-10-31T14:17:14;4.65;;;2.55;;
64188;SDS011;50493;50.970;10.082;2023-10-31T14:19:41;4.15;;;2.40;;
64188;SDS011;50493;50.970;10.082;2023-10-31T14:22:07;7.28;;;2.65;;
64188;SDS011;50493;50.970;10.082;2023-10-31T14:24:33;4.45;;;2.25;;
64188;SDS011;50493;50.970;10.082;2023-10-31T14:26:59;3.97;;;2.00;;